Time;durP1;ratioP1;P1;durP2;ratioP2;P2;SDS_P1;SDS_P2;PMS_P1;PMS_P2;Temp;Humidity;BMP_temperature;BMP_pressure;BME280_temperature;BME280_humidity;BME280_pressure;Samples;Min_cycle;Max_cycle;Signal;HPM_P1;HPM_P2
2023/11/28 00:01:05;;;;;;;19.70;14.37;;;1.80;99.90;;;;;;5012950;28;20175;-69
2023/11/28 00:03:34;;;;;;;19.43;13.70;;;1.70;99.90;;;;;;5011784;28;20200;-70
2023/11/28 00:05:59;;;;;;;18.60;13.70;;;1.70;99.90;;;;;;5012970;28;20566;-69
2023/11/28 00:08:27;;;;;;;19.47;14.03;;;1.60;99.90;;;;;;5013098;28;20187;-69
2023/11/28 00:10:53;;;;;;;17.73;12.83;;;1.60;99.90;;;;;;5012847;28;20207;-69
2023/11/28 00:13:19;;;;;;;16.07;12.20;;;1.60;99.90;;;;;;5012849;28;20172;-69
2023/11/28 00:15:44;;;;;;;17.57;12.73;;;1.50;99.90;;;;;;5012584;28;20655;-69
2023/11/28 00:18:10;;;;;;;13.07;10.70;;;1.60;99.90;;;;;;5012716;28;20242;-69
2023/11/28 00:20:36;;;;;;;16.70;11.83;;;1.60;99.90;;;;;;5012867;28;20550;-69
2023/11/28 00:23:01;;;;;;;18.47;10.30;;;1.50;99.90;;;;;;5012787;28;20168;-69
2023/11/28 00:25:27;;;;;;;16.40;12.90;;;1.50;99.90;;;;;;5012601;28;20208;-69
2023/11/28 00:27:53;;;;;;;15.07;12.53;;;1.50;99.90;;;;;;5012592;28;20183;-69
2023/11/28 00:30:19;;;;;;;13.70;11.57;;;1.50;99.90;;;;;;5012511;28;20263;-69
2023/11/28 00:32:45;;;;;;;13.53;11.87;;;1.60;99.90;;;;;;5012512;28;20180;-69
2023/11/28 00:35:11;;;;;;;12.67;11.33;;;1.60;99.90;;;;;;5012316;28;20235;-70
2023/11/28 00:37:37;;;;;;;13.47;12.10;;;1.60;99.90;;;;;;5012854;28;20176;-69
2023/11/28 00:40:06;;;;;;;14.50;9.63;;;1.60;99.90;;;;;;5012079;28;20180;-69
2023/11/28 00:42:32;;;;;;;9.60;8.80;;;1.60;99.90;;;;;;5012565;28;20174;-69
2023/11/28 00:44:58;;;;;;;13.03;11.63;;;1.60;99.90;;;;;;5012271;28;20229;-69
2023/11/28 00:47:24;;;;;;;12.50;11.30;;;1.70;99.90;;;;;;5012654;28;20172;-70
2023/11/28 00:49:50;;;;;;;16.87;11.70;;;1.60;99.90;;;;;;5012041;28;20184;-69
2023/11/28 00:52:17;;;;;;;13.40;10.73;;;1.60;99.90;;;;;;5012155;28;20563;-69
2023/11/28 00:54:43;;;;;;;13.07;11.67;;;1.60;99.90;;;;;;5012620;28;20207;-69
2023/11/28 00:57:09;;;;;;;12.60;11.27;;;1.60;99.90;;;;;;5013112;28;20164;-69
2023/11/28 00:59:36;;;;;;;13.37;11.87;;;1.60;99.90;;;;;;5012739;28;20309;-69
2023/11/28 01:02:05;;;;;;;12.87;11.47;;;1.60;99.90;;;;;;5012748;28;20206;-69
2023/11/28 01:04:31;;;;;;;13.87;11.17;;;1.60;99.90;;;;;;5012292;28;20172;-69
2023/11/28 01:06:57;;;;;;;12.23;10.80;;;1.50;99.90;;;;;;5011810;28;20196;-69
2023/11/28 01:09:24;;;;;;;14.53;11.10;;;1.50;99.90;;;;;;5011900;28;20187;-69
2023/11/28 01:11:49;;;;;;;12.00;10.83;;;1.50;99.90;;;;;;5011780;28;20215;-69
2023/11/28 01:14:15;;;;;;;11.67;10.50;;;1.50;99.90;;;;;;5007274;28;20301;-69
2023/11/28 01:16:43;;;;;;;10.77;9.77;;;1.40;99.90;;;;;;5011903;28;20210;-69
2023/11/28 01:19:10;;;;;;;13.37;10.80;;;1.40;99.90;;;;;;5012822;28;20344;-69
2023/11/28 01:21:35;;;;;;;12.27;10.97;;;1.40;99.90;;;;;;5011517;28;20173;-69
2023/11/28 01:24:01;;;;;;;12.73;10.87;;;1.40;99.90;;;;;;5011523;28;20245;-69
2023/11/28 01:26:27;;;;;;;12.77;10.50;;;1.40;99.90;;;;;;5011810;28;20683;-69
2023/11/28 01:28:52;;;;;;;11.90;10.67;;;1.40;99.90;;;;;;5011609;28;20239;-69
2023/11/28 01:31:18;;;;;;;10.27;9.27;;;1.40;99.90;;;;;;5011604;28;20181;-69
2023/11/28 01:33:44;;;;;;;13.03;10.93;;;1.40;99.90;;;;;;5011512;28;20210;-69
2023/11/28 01:36:10;;;;;;;13.30;11.40;;;1.40;99.90;;;;;;5026686;28;20208;-69
2023/11/28 01:38:37;;;;;;;12.33;10.60;;;1.40;99.90;;;;;;5011449;28;20600;-69
2023/11/28 01:41:03;;;;;;;12.50;11.20;;;1.40;99.90;;;;;;5011155;28;20691;-69
2023/11/28 01:43:29;;;;;;;14.57;11.87;;;1.40;99.90;;;;;;5011436;28;20463;-70
2023/11/28 01:45:56;;;;;;;12.10;10.83;;;1.40;99.90;;;;;;5011022;28;20226;-68
2023/11/28 01:48:22;;;;;;;12.13;10.90;;;1.40;99.90;;;;;;5011623;28;20263;-70
2023/11/28 01:50:49;;;;;;;10.90;9.80;;;1.40;99.90;;;;;;5011596;28;20263;-69
2023/11/28 01:53:17;;;;;;;9.73;8.80;;;1.40;99.90;;;;;;5011432;28;20180;-69
2023/11/28 01:55:43;;;;;;;12.97;11.77;;;1.40;99.90;;;;;;5011297;28;20675;-70
2023/11/28 01:58:09;;;;;;;13.47;10.70;;;1.40;99.90;;;;;;5011026;28;20226;-70
2023/11/28 02:00:36;;;;;;;12.77;11.47;;;1.40;99.90;;;;;;5011415;28;20180;-69
2023/11/28 02:03:03;;;;;;;12.50;11.20;;;1.40;99.90;;;;;;5011249;28;20213;-69
2023/11/28 02:05:29;;;;;;;12.40;11.10;;;1.40;99.90;;;;;;5026167;28;20663;-70
2023/11/28 02:07:55;;;;;;;11.87;10.63;;;1.50;99.90;;;;;;5011070;28;20176;-70
2023/11/28 02:10:23;;;;;;;12.60;11.30;;;1.50;99.90;;;;;;5010926;28;20659;-70
2023/11/28 02:12:49;;;;;;;11.40;10.30;;;1.60;99.90;;;;;;5011153;28;20676;-70
2023/11/28 02:15:15;;;;;;;10.20;9.33;;;1.60;99.90;;;;;;5011119;28;20694;-69
2023/11/28 02:17:40;;;;;;;11.27;10.13;;;1.60;99.90;;;;;;5011203;28;20192;-70
2023/11/28 02:20:08;;;;;;;11.60;10.60;;;1.60;99.90;;;;;;5010589;28;20180;-69
2023/11/28 02:22:34;;;;;;;12.47;11.27;;;1.60;99.90;;;;;;5010848;28;20176;-69
2023/11/28 02:25:02;;;;;;;11.17;10.23;;;1.70;99.90;;;;;;5010928;28;20574;-70
2023/11/28 02:27:27;;;;;;;13.00;10.70;;;1.70;99.90;;;;;;5012808;28;20658;-70
2023/11/28 02:29:53;;;;;;;12.40;10.37;;;1.80;99.90;;;;;;5013711;28;20262;-70
2023/11/28 02:32:19;;;;;;;15.30;13.70;;;1.80;99.90;;;;;;5014953;28;20180;-70
2023/11/28 02:34:45;;;;;;;12.90;11.60;;;1.80;99.90;;;;;;5014863;28;20208;-71
2023/11/28 02:37:10;;;;;;;12.23;11.13;;;1.80;99.90;;;;;;5015134;28;20183;-71
2023/11/28 02:39:36;;;;;;;11.03;10.13;;;1.80;99.90;;;;;;5014782;28;20188;-71
2023/11/28 02:42:01;;;;;;;11.50;10.50;;;1.80;99.90;;;;;;5015362;28;20620;-70
2023/11/28 02:44:27;;;;;;;11.13;9.83;;;1.80;99.90;;;;;;5014864;28;20172;-71
2023/11/28 02:46:53;;;;;;;12.67;11.37;;;1.80;99.90;;;;;;5014655;28;20204;-71
2023/11/28 02:49:18;;;;;;;11.07;9.97;;;1.80;99.90;;;;;;5014816;28;20175;-70
2023/11/28 02:51:44;;;;;;;11.30;10.30;;;1.80;99.90;;;;;;5014451;28;20176;-74
2023/11/28 02:54:10;;;;;;;10.33;9.37;;;1.80;99.90;;;;;;5014419;28;20323;-70
2023/11/28 02:56:35;;;;;;;11.20;10.20;;;1.70;99.90;;;;;;5014924;28;20235;-70
2023/11/28 02:59:01;;;;;;;13.33;9.90;;;1.70;99.90;;;;;;5014498;28;20180;-71
2023/11/28 03:01:26;;;;;;;11.90;10.80;;;1.70;99.90;;;;;;5014371;28;20195;-71
2023/11/28 03:03:52;;;;;;;11.37;10.27;;;1.70;99.90;;;;;;5014336;28;20191;-71
2023/11/28 03:06:18;;;;;;;12.77;11.60;;;1.70;99.90;;;;;;5014038;28;20216;-72
2023/11/28 03:08:43;;;;;;;13.67;12.27;;;1.70;99.90;;;;;;5014527;28;20212;-71
2023/11/28 03:11:09;;;;;;;13.77;12.33;;;1.70;99.90;;;;;;5014155;28;20180;-71
2023/11/28 03:13:35;;;;;;;12.53;11.17;;;1.70;99.90;;;;;;5014607;28;20183;-70
2023/11/28 03:16:01;;;;;;;11.90;10.77;;;1.60;99.90;;;;;;5014033;28;20188;-71
2023/11/28 03:18:27;;;;;;;16.73;12.80;;;1.60;99.90;;;;;;5014079;28;20191;-70
2023/11/28 03:20:53;;;;;;;10.87;9.97;;;1.50;99.90;;;;;;5014077;28;20181;-70
2023/11/28 03:23:18;;;;;;;12.60;11.40;;;1.50;99.90;;;;;;5014516;28;20211;-70
2023/11/28 03:25:44;;;;;;;12.73;11.60;;;1.50;99.90;;;;;;5012901;28;20196;-70
2023/11/28 03:28:09;;;;;;;13.13;11.83;;;1.50;99.90;;;;;;5014107;28;20219;-70
2023/11/28 03:30:35;;;;;;;15.27;12.93;;;1.40;99.90;;;;;;5013879;28;20183;-70
2023/11/28 03:33:01;;;;;;;13.70;12.30;;;1.40;99.90;;;;;;5013717;28;20179;-70
2023/11/28 03:35:28;;;;;;;16.20;14.33;;;1.40;99.90;;;;;;5013976;28;20207;-70
2023/11/28 03:37:54;;;;;;;15.27;13.27;;;1.50;99.90;;;;;;5013841;28;20200;-70
2023/11/28 03:40:20;;;;;;;14.80;13.30;;;1.60;99.90;;;;;;5013577;28;20207;-71
2023/11/28 03:42:46;;;;;;;16.13;13.40;;;1.50;99.90;;;;;;5014186;28;20179;-71
2023/11/28 03:45:12;;;;;;;17.70;14.97;;;1.60;99.90;;;;;;5013774;28;20231;-71
2023/11/28 03:47:39;;;;;;;16.97;13.97;;;1.60;99.90;;;;;;5013899;28;20550;-71
2023/11/28 03:50:06;;;;;;;15.20;13.47;;;1.60;99.90;;;;;;5013266;28;20679;-71
2023/11/28 03:52:31;;;;;;;18.07;16.07;;;1.60;99.90;;;;;;5013665;28;20267;-70
2023/11/28 03:54:57;;;;;;;20.17;15.93;;;1.70;99.90;;;;;;5013506;28;20674;-71
2023/11/28 03:57:23;;;;;;;17.70;15.17;;;1.60;99.90;;;;;;5013693;28;20173;-70
2023/11/28 03:59:48;;;;;;;17.10;15.30;;;1.70;99.90;;;;;;5013300;28;20215;-70
2023/11/28 04:02:14;;;;;;;21.83;16.70;;;1.70;99.90;;;;;;5013639;28;20238;-70
2023/11/28 04:04:39;;;;;;;19.17;16.20;;;1.70;99.90;;;;;;5014377;28;20180;-70
2023/11/28 04:07:05;;;;;;;15.70;13.97;;;1.70;99.90;;;;;;5013771;28;20549;-70
2023/11/28 04:09:31;;;;;;;19.07;16.90;;;1.70;99.90;;;;;;5013310;28;20255;-70
2023/11/28 04:11:56;;;;;;;20.23;17.37;;;1.70;99.90;;;;;;5013396;28;20175;-70
2023/11/28 04:14:22;;;;;;;21.50;18.23;;;1.70;99.90;;;;;;5013241;28;20200;-70
2023/11/28 04:16:48;;;;;;;23.53;18.13;;;1.80;99.90;;;;;;5012970;28;20235;-69
2023/11/28 04:19:14;;;;;;;22.17;18.30;;;1.80;99.90;;;;;;5013060;28;20532;-70
2023/11/28 04:21:40;;;;;;;25.33;19.47;;;1.80;99.90;;;;;;5013176;28;20628;-70
2023/11/28 04:24:05;;;;;;;21.47;17.70;;;1.80;99.90;;;;;;5012987;28;20268;-70
2023/11/28 04:26:31;;;;;;;24.00;20.43;;;1.80;99.90;;;;;;5013203;28;20192;-70
2023/11/28 04:28:57;;;;;;;23.33;18.03;;;1.80;99.90;;;;;;5013041;28;20183;-70
2023/11/28 04:31:22;;;;;;;22.57;18.50;;;1.80;99.90;;;;;;5012802;28;20191;-70
2023/11/28 04:33:48;;;;;;;28.33;20.97;;;1.70;99.90;;;;;;5012825;28;20176;-71
2023/11/28 04:36:14;;;;;;;23.60;19.70;;;1.70;99.90;;;;;;5012580;28;20279;-70
2023/11/28 04:38:41;;;;;;;23.87;20.40;;;1.70;99.90;;;;;;5012754;28;20169;-70
2023/11/28 04:41:09;;;;;;;26.60;20.83;;;1.80;99.90;;;;;;5012592;28;20204;-70
2023/11/28 04:43:34;;;;;;;25.20;20.47;;;1.80;99.90;;;;;;5012554;28;20237;-71
2023/11/28 04:46:00;;;;;;;26.97;21.13;;;1.80;99.90;;;;;;5012789;28;20196;-70
2023/11/28 04:48:26;;;;;;;29.67;23.57;;;1.80;99.90;;;;;;5012527;28;20196;-70
2023/11/28 04:50:51;;;;;;;25.40;20.07;;;1.80;99.90;;;;;;5012029;28;20609;-71
2023/11/28 04:53:17;;;;;;;28.47;22.67;;;1.80;99.90;;;;;;5012460;28;20175;-70
2023/11/28 04:55:43;;;;;;;31.93;24.07;;;1.80;99.90;;;;;;5012472;28;20207;-70
2023/11/28 04:58:08;;;;;;;25.93;20.73;;;1.80;99.90;;;;;;5012119;28;20640;-70
2023/11/28 05:00:34;;;;;;;31.23;23.80;;;1.80;99.90;;;;;;5012100;28;20173;-70
2023/11/28 05:02:59;;;;;;;25.00;19.67;;;1.70;99.90;;;;;;5012316;28;20230;-70
2023/11/28 05:05:25;;;;;;;28.90;21.03;;;1.70;99.90;;;;;;5012016;28;20199;-70
2023/11/28 05:07:51;;;;;;;30.30;21.93;;;1.70;99.90;;;;;;5012169;28;20177;-70
2023/11/28 05:10:16;;;;;;;28.07;22.83;;;1.70;99.90;;;;;;5011707;28;20191;-70
2023/11/28 05:12:42;;;;;;;27.37;21.10;;;1.70;99.90;;;;;;5011781;28;20583;-72
2023/11/28 05:15:08;;;;;;;28.63;21.37;;;1.70;99.90;;;;;;5011563;28;20254;-70
2023/11/28 05:17:34;;;;;;;32.30;25.03;;;1.60;99.90;;;;;;5011252;28;20192;-71
2023/11/28 05:19:59;;;;;;;29.27;23.80;;;1.70;99.90;;;;;;5011355;28;20187;-70
2023/11/28 05:22:25;;;;;;;29.10;23.13;;;1.70;99.90;;;;;;5011989;28;20191;-70
2023/11/28 05:24:50;;;;;;;30.70;22.13;;;1.70;99.90;;;;;;5012158;28;20183;-70
2023/11/28 05:27:16;;;;;;;35.70;24.40;;;1.80;99.90;;;;;;5012721;28;20786;-70
2023/11/28 05:29:42;;;;;;;28.53;20.23;;;1.80;99.90;;;;;;5011719;28;20238;-70
2023/11/28 05:32:07;;;;;;;32.30;22.07;;;1.80;99.90;;;;;;5011810;28;20180;-70
2023/11/28 05:34:33;;;;;;;31.50;23.43;;;1.70;99.90;;;;;;5011796;28;20232;-70
2023/11/28 05:36:59;;;;;;;33.10;23.13;;;1.70;99.90;;;;;;5011728;28;20620;-70
2023/11/28 05:39:25;;;;;;;28.67;22.80;;;1.70;99.90;;;;;;5011401;28;20234;-70
2023/11/28 05:41:50;;;;;;;34.27;25.43;;;1.70;99.90;;;;;;5011541;28;20172;-70
2023/11/28 05:44:16;;;;;;;34.87;25.33;;;1.70;99.90;;;;;;5011333;28;20184;-70
2023/11/28 05:46:41;;;;;;;34.20;25.43;;;1.70;99.90;;;;;;5026738;28;20203;-70
2023/11/28 05:49:07;;;;;;;42.00;27.90;;;1.70;99.90;;;;;;5010699;28;20219;-70
2023/11/28 05:51:33;;;;;;;36.30;27.00;;;1.70;99.90;;;;;;5011217;28;20546;-70
2023/11/28 05:53:59;;;;;;;36.03;26.07;;;1.70;99.90;;;;;;5011014;28;20212;-71
2023/11/28 05:56:25;;;;;;;39.53;27.40;;;1.70;99.90;;;;;;5011170;28;20647;-71
2023/11/28 05:58:50;;;;;;;34.07;26.07;;;1.60;99.90;;;;;;5010037;28;20291;-71
2023/11/28 06:01:16;;;;;;;35.57;25.20;;;1.60;99.90;;;;;;5011145;28;20255;-71
2023/11/28 06:03:42;;;;;;;36.27;24.93;;;1.60;99.90;;;;;;5015467;28;20175;-72
2023/11/28 06:06:09;;;;;;;37.53;25.87;;;1.60;99.90;;;;;;5013511;28;20258;-71
2023/11/28 06:08:34;;;;;;;28.63;21.93;;;1.60;99.90;;;;;;5015507;28;20192;-71
2023/11/28 06:11:00;;;;;;;36.23;25.63;;;1.60;99.90;;;;;;5015175;28;20176;-71
2023/11/28 06:13:27;;;;;;;31.77;22.70;;;1.60;99.90;;;;;;5015031;28;20245;-71
2023/11/28 06:15:52;;;;;;;35.43;25.20;;;1.60;99.90;;;;;;5015073;28;20237;-71
2023/11/28 06:18:18;;;;;;;37.10;24.80;;;1.60;99.90;;;;;;5013369;28;20204;-71
2023/11/28 06:20:44;;;;;;;31.30;24.20;;;1.60;99.90;;;;;;5014859;28;20263;-71
2023/11/28 06:23:11;;;;;;;33.23;23.80;;;1.60;99.90;;;;;;5014938;28;20238;-71
2023/11/28 06:25:36;;;;;;;31.30;24.00;;;1.60;99.90;;;;;;5014955;28;20196;-71
2023/11/28 06:28:02;;;;;;;33.87;24.67;;;1.60;99.90;;;;;;5014669;28;20189;-71
2023/11/28 06:30:28;;;;;;;20.77;16.97;;;1.60;99.90;;;;;;5014461;28;20176;-71
2023/11/28 06:32:53;;;;;;;34.83;24.40;;;1.60;99.90;;;;;;5014889;28;20230;-71
2023/11/28 06:35:19;;;;;;;36.37;25.23;;;1.60;99.90;;;;;;5013975;28;20705;-71
2023/11/28 06:37:44;;;;;;;37.43;25.83;;;1.60;99.90;;;;;;5014771;28;20172;-71
2023/11/28 06:40:10;;;;;;;36.20;24.10;;;1.60;99.90;;;;;;5014112;28;20537;-71
2023/11/28 06:42:36;;;;;;;35.87;24.20;;;1.60;99.90;;;;;;5014771;28;20519;-71
2023/11/28 06:45:02;;;;;;;42.53;26.30;;;1.70;99.90;;;;;;5013746;28;20667;-71
2023/11/28 06:47:29;;;;;;;37.40;25.07;;;1.60;99.90;;;;;;5014584;28;20172;-71
2023/11/28 06:49:56;;;;;;;45.67;25.80;;;1.60;99.90;;;;;;5014458;28;20191;-71
2023/11/28 06:52:22;;;;;;;43.33;26.23;;;1.60;99.90;;;;;;5013392;28;20268;-71
2023/11/28 06:54:47;;;;;;;36.07;23.87;;;1.70;99.90;;;;;;5014323;28;20204;-71
2023/11/28 06:57:13;;;;;;;36.63;25.57;;;1.70;99.90;;;;;;5014605;28;20210;-71
2023/11/28 06:59:38;;;;;;;37.07;25.43;;;1.70;99.90;;;;;;5014240;28;20234;-71
2023/11/28 07:02:04;;;;;;;40.67;26.53;;;1.70;99.90;;;;;;5014190;28;20180;-71
2023/11/28 07:04:30;;;;;;;42.07;25.93;;;1.70;99.90;;;;;;5014151;28;20263;-72
2023/11/28 07:06:55;;;;;;;39.57;27.13;;;1.70;99.90;;;;;;5012254;28;20283;-71
2023/11/28 07:09:21;;;;;;;41.33;24.87;;;1.70;99.90;;;;;;5013757;28;20263;-71
2023/11/28 07:11:51;;;;;;;42.57;27.27;;;1.70;99.90;;;;;;5013512;28;20187;-71
2023/11/28 07:14:17;;;;;;;36.43;24.70;;;1.70;99.90;;;;;;5013063;28;20204;-71
2023/11/28 07:16:43;;;;;;;37.67;26.33;;;1.70;99.90;;;;;;5013756;28;20676;-71
2023/11/28 07:19:09;;;;;;;33.23;23.33;;;1.70;99.90;;;;;;5013597;28;20184;-71
2023/11/28 07:21:36;;;;;;;41.57;25.60;;;1.70;99.90;;;;;;5013721;28;20254;-71
2023/11/28 07:24:02;;;;;;;35.50;23.70;;;1.60;99.90;;;;;;5013626;28;20647;-71
2023/11/28 07:26:27;;;;;;;38.70;24.83;;;1.60;99.90;;;;;;5013426;28;20223;-71
2023/11/28 07:28:53;;;;;;;32.40;23.93;;;1.60;99.90;;;;;;5013566;28;20184;-71
2023/11/28 07:31:19;;;;;;;36.07;23.67;;;1.60;99.90;;;;;;5013746;28;20180;-71
2023/11/28 07:33:44;;;;;;;40.27;25.27;;;1.60;99.90;;;;;;5012962;28;20180;-71
2023/11/28 07:36:14;;;;;;;32.73;22.83;;;1.60;99.90;;;;;;5013277;28;20236;-71
2023/11/28 07:38:43;;;;;;;31.43;22.47;;;1.60;99.90;;;;;;5013553;28;20215;-70
2023/11/28 07:41:15;;;;;;;30.13;22.40;;;1.50;99.90;;;;;;5013307;28;20188;-71
2023/11/28 07:43:41;;;;;;;34.07;23.63;;;1.50;99.90;;;;;;5013586;28;20172;-71
2023/11/28 07:46:08;;;;;;;27.33;21.27;;;1.50;99.90;;;;;;5013397;28;20604;-71
2023/11/28 07:48:34;;;;;;;31.23;20.17;;;1.50;99.90;;;;;;5013032;28;20230;-71
2023/11/28 07:50:59;;;;;;;35.00;23.20;;;1.50;99.90;;;;;;5013118;28;20636;-71
2023/11/28 07:53:25;;;;;;;22.80;17.50;;;1.50;99.90;;;;;;5012937;28;20251;-71
2023/11/28 07:55:51;;;;;;;26.07;19.83;;;1.40;99.90;;;;;;5012827;28;20703;-70
2023/11/28 07:58:17;;;;;;;26.40;19.53;;;1.40;99.90;;;;;;5012740;28;20184;-71
2023/11/28 08:00:43;;;;;;;24.80;20.97;;;1.50;99.90;;;;;;5013043;28;20182;-71
2023/11/28 08:03:09;;;;;;;22.70;17.13;;;1.50;99.90;;;;;;5012878;28;20176;-72
2023/11/28 08:05:35;;;;;;;23.43;17.33;;;1.40;99.90;;;;;;5012595;28;20485;-71
2023/11/28 08:08:01;;;;;;;24.33;17.57;;;1.40;99.90;;;;;;5012585;28;20318;-71
2023/11/28 08:10:26;;;;;;;23.47;17.93;;;1.30;99.90;;;;;;5012823;28;20198;-71
2023/11/28 08:12:53;;;;;;;22.67;17.00;;;1.30;99.90;;;;;;5013381;28;20444;-71
2023/11/28 08:15:18;;;;;;;25.47;17.83;;;1.40;99.90;;;;;;5012168;28;20491;-70
2023/11/28 08:17:45;;;;;;;23.27;16.10;;;1.40;99.90;;;;;;5012574;28;20270;-71
2023/11/28 08:20:11;;;;;;;18.77;16.07;;;1.40;99.90;;;;;;5011935;28;20164;-71
2023/11/28 08:22:36;;;;;;;20.47;15.50;;;1.50;99.90;;;;;;5012549;28;20318;-71
2023/11/28 08:25:02;;;;;;;19.73;14.57;;;1.40;99.90;;;;;;5011733;28;20188;-71
2023/11/28 08:27:28;;;;;;;19.83;15.07;;;1.40;99.90;;;;;;5012813;28;20177;-70
2023/11/28 08:29:54;;;;;;;18.13;15.03;;;1.40;99.90;;;;;;5012091;28;20360;-70
2023/11/28 08:32:20;;;;;;;17.20;14.50;;;1.50;99.90;;;;;;5012245;28;20227;-70
2023/11/28 08:34:46;;;;;;;18.83;15.37;;;1.50;99.90;;;;;;5011911;28;20208;-71
2023/11/28 08:37:12;;;;;;;18.47;15.50;;;1.50;99.90;;;;;;5012220;28;20706;-70
2023/11/28 08:39:38;;;;;;;19.73;14.70;;;1.50;99.90;;;;;;5010984;28;20188;-70
2023/11/28 08:42:04;;;;;;;19.00;14.17;;;1.50;99.90;;;;;;5012106;28;20169;-71
2023/11/28 08:44:32;;;;;;;16.40;14.23;;;1.50;99.90;;;;;;5012279;28;20186;-71
2023/11/28 08:46:58;;;;;;;17.40;13.03;;;1.50;99.90;;;;;;5012331;28;20242;-71
2023/11/28 08:49:24;;;;;;;16.67;14.23;;;1.50;99.90;;;;;;5012031;28;20172;-70
2023/11/28 08:51:50;;;;;;;14.90;12.93;;;1.50;99.90;;;;;;5012274;28;20179;-71
2023/11/28 08:54:16;;;;;;;15.90;14.27;;;1.70;99.90;;;;;;5011872;28;20208;-70
2023/11/28 08:56:42;;;;;;;16.63;13.50;;;1.70;99.90;;;;;;5011883;28;20199;-70
2023/11/28 08:59:07;;;;;;;15.13;13.07;;;1.80;99.90;;;;;;5011356;28;20581;-70
2023/11/28 09:01:33;;;;;;;13.50;12.20;;;1.80;99.90;;;;;;5010286;28;20231;-70
2023/11/28 09:04:00;;;;;;;14.03;12.60;;;1.80;99.90;;;;;;5011790;28;20259;-70
2023/11/28 09:06:29;;;;;;;16.43;12.50;;;1.80;99.90;;;;;;5011663;28;20609;-71
2023/11/28 09:08:54;;;;;;;13.80;12.40;;;1.90;1.00;;;;;;5011239;28;20270;-71
2023/11/28 09:11:20;;;;;;;13.13;11.63;;;1.90;1.00;;;;;;5011479;28;20204;-71
2023/11/28 09:13:46;;;;;;;11.27;10.13;;;1.90;1.00;;;;;;5010650;28;20173;-71
2023/11/28 09:16:12;;;;;;;12.37;10.87;;;1.90;99.90;;;;;;5011705;28;20545;-71
2023/11/28 09:18:42;;;;;;;11.53;10.53;;;2.00;99.90;;;;;;5010520;28;20191;-71
2023/11/28 09:21:08;;;;;;;15.30;10.37;;;2.10;99.90;;;;;;5011875;28;20204;-71
2023/11/28 09:23:35;;;;;;;10.83;9.87;;;2.10;99.90;;;;;;5011640;28;20218;-70
2023/11/28 09:26:00;;;;;;;11.13;10.07;;;2.10;99.90;;;;;;5011616;28;20200;-71
2023/11/28 09:28:26;;;;;;;10.30;9.37;;;2.20;1.00;;;;;;5011481;28;20208;-71
2023/11/28 09:30:51;;;;;;;9.47;8.67;;;2.20;99.90;;;;;;5007126;28;20187;-71
2023/11/28 09:33:17;;;;;;;9.83;8.93;;;2.20;99.90;;;;;;5012183;28;20168;-71
2023/11/28 09:35:44;;;;;;;9.77;8.77;;;2.10;1.00;;;;;;5011798;28;20697;-72
2023/11/28 09:38:10;;;;;;;13.40;9.10;;;2.00;27.30;;;;;;5011334;28;20160;-71
2023/11/28 09:40:37;;;;;;;9.90;9.10;;;2.10;99.90;;;;;;5011108;28;20261;-71
2023/11/28 09:43:03;;;;;;;8.70;7.93;;;2.00;99.90;;;;;;5011372;28;20271;-71
2023/11/28 09:45:29;;;;;;;9.73;8.83;;;2.10;93.40;;;;;;5010316;28;20242;-71
2023/11/28 09:47:57;;;;;;;8.57;7.87;;;2.00;99.90;;;;;;5011516;28;20172;-70
2023/11/28 09:50:25;;;;;;;9.63;8.73;;;2.00;99.90;;;;;;5010766;28;20547;-71
2023/11/28 09:52:53;;;;;;;9.00;8.27;;;2.00;83.90;;;;;;5011538;28;20370;-71
2023/11/28 09:55:20;;;;;;;9.10;8.20;;;2.10;99.90;;;;;;5010748;28;20246;-71
2023/11/28 09:57:48;;;;;;;9.53;7.60;;;2.20;99.90;;;;;;5011203;28;20207;-72
2023/11/28 10:00:20;;;;;;;8.83;8.03;;;2.20;36.00;;;;;;5010169;28;20164;-71
2023/11/28 10:02:51;;;;;;;8.97;8.27;;;2.20;99.90;;;;;;5011423;28;20559;-71
2023/11/28 10:05:18;;;;;;;8.27;7.47;;;2.20;99.90;;;;;;5010734;28;20190;-72
2023/11/28 10:07:47;;;;;;;8.20;7.53;;;2.30;58.90;;;;;;5011146;28;20179;-71
2023/11/28 10:10:16;;;;;;;7.70;7.10;;;2.40;99.90;;;;;;5011212;28;20172;-71
2023/11/28 10:12:42;;;;;;;7.13;6.63;;;2.40;1.00;;;;;;5010859;28;20267;-71
2023/11/28 10:15:08;;;;;;;10.40;6.70;;;2.50;1.00;;;;;;5011052;28;20299;-71
2023/11/28 10:17:36;;;;;;;7.27;6.67;;;2.60;99.90;;;;;;5011097;28;20192;-71
2023/11/28 10:20:07;;;;;;;6.67;6.07;;;2.80;50.90;;;;;;5011042;28;20172;-70
2023/11/28 10:22:33;;;;;;;7.07;6.47;;;2.90;1.00;;;;;;5010856;28;20180;-71
2023/11/28 10:25:02;;;;;;;6.80;6.23;;;3.00;1.00;;;;;;5011048;28;20196;-70
2023/11/28 10:27:31;;;;;;;6.40;5.90;;;3.00;1.00;;;;;;5011097;28;20200;-71
2023/11/28 10:29:59;;;;;;;6.07;5.47;;;3.00;1.00;;;;;;5010972;28;20279;-71
2023/11/28 10:32:29;;;;;;;6.60;6.10;;;3.00;1.00;;;;;;5010716;28;20655;-71
2023/11/28 10:34:56;;;;;;;6.40;5.67;;;3.00;1.00;;;;;;5010770;28;20216;-71
2023/11/28 10:37:22;;;;;;;6.10;5.60;;;3.00;1.00;;;;;;5011019;28;20172;-71
2023/11/28 10:39:52;;;;;;;5.50;5.20;;;3.10;1.00;;;;;;5010759;28;20227;-71
2023/11/28 10:42:17;;;;;;;5.90;5.40;;;3.30;1.00;;;;;;5010685;28;20173;-71
2023/11/28 10:44:45;;;;;;;5.60;5.20;;;3.40;1.00;;;;;;5010619;28;20671;-71
2023/11/28 10:47:13;;;;;;;5.10;4.80;;;3.30;1.00;;;;;;5011094;28;20172;-71
2023/11/28 10:49:39;;;;;;;5.60;5.30;;;3.50;1.00;;;;;;5014055;28;20184;-70
2023/11/28 10:52:05;;;;;;;5.37;5.00;;;3.80;1.00;;;;;;5014570;28;20706;-70
2023/11/28 10:54:36;;;;;;;4.73;4.43;;;4.20;1.00;;;;;;5014142;28;20334;-71
2023/11/28 10:57:08;;;;;;;4.33;4.07;;;4.90;1.00;;;;;;5014953;28;20172;-71
2023/11/28 10:59:35;;;;;;;4.80;4.40;;;5.60;1.00;;;;;;5014128;28;20172;-71
2023/11/28 11:02:04;;;;;;;5.43;4.40;;;5.70;1.00;;;;;;5014253;28;20192;-71
2023/11/28 11:04:30;;;;;;;4.53;4.23;;;5.40;1.00;;;;;;4993263;28;20184;-71
2023/11/28 11:06:56;;;;;;;5.17;4.77;;;5.00;1.00;;;;;;4994354;28;20228;-71
2023/11/28 11:09:23;;;;;;;5.23;4.93;;;4.60;1.00;;;;;;4994231;28;20719;-71
2023/11/28 11:11:51;;;;;;;4.87;4.57;;;4.30;1.00;;;;;;4994665;28;20186;-71
2023/11/28 11:14:41;;;;;;;5.13;4.83;;;4.10;1.00;;;;;;4994294;28;20200;-71
2023/11/28 11:17:25;;;;;;;6.30;5.43;;;3.90;1.00;;;;;;4996802;28;20564;-71
2023/11/28 11:19:54;;;;;;;8.40;5.83;;;3.60;1.00;;;;;;5013497;28;20234;-71
2023/11/28 11:22:24;;;;;;;5.27;4.87;;;3.60;1.00;;;;;;5013570;28;20184;-71
2023/11/28 11:24:49;;;;;;;6.17;5.63;;;3.50;1.00;;;;;;5013670;28;20180;-71
2023/11/28 11:27:18;;;;;;;5.57;5.17;;;3.40;1.00;;;;;;5014075;28;20184;-71
2023/11/28 11:29:44;;;;;;;5.57;5.17;;;3.40;1.00;;;;;;5013450;28;20650;-71
2023/11/28 11:32:11;;;;;;;6.97;5.13;;;3.40;1.00;;;;;;5013548;28;20211;-71
2023/11/28 11:34:40;;;;;;;5.80;5.30;;;3.50;1.00;;;;;;4993663;28;20216;-71
2023/11/28 11:37:13;;;;;;;5.33;4.87;;;3.50;1.00;;;;;;4994092;28;20173;-71
2023/11/28 11:39:40;;;;;;;6.47;5.73;;;3.60;1.00;;;;;;4994486;28;20181;-71
2023/11/28 11:42:33;;;;;;;5.27;4.97;;;3.70;1.00;;;;;;4994140;28;20181;-71
2023/11/28 11:45:06;;;;;;;5.30;5.00;;;3.70;1.00;;;;;;4994119;28;20878;-71
2023/11/28 11:47:35;;;;;;;5.00;4.57;;;3.60;1.00;;;;;;4998527;28;20184;-71
2023/11/28 11:50:05;;;;;;;5.07;4.60;;;3.60;1.00;;;;;;5013359;28;20172;-71
2023/11/28 11:52:31;;;;;;;5.27;4.97;;;3.60;1.00;;;;;;5013350;28;20578;-71
2023/11/28 11:55:12;;;;;;;5.33;5.03;;;3.60;1.00;;;;;;5011224;28;20298;-70
2023/11/28 11:57:38;;;;;;;5.87;5.20;;;3.50;1.00;;;;;;5012927;28;20172;-72
2023/11/28 12:00:07;;;;;;;5.90;5.30;;;3.50;1.00;;;;;;5013079;28;20238;-70
2023/11/28 12:02:40;;;;;;;5.57;5.20;;;3.50;1.00;;;;;;5013298;28;20172;-71
2023/11/28 12:05:08;;;;;;;7.47;5.00;;;3.30;1.00;;;;;;5012963;28;20196;-70
2023/11/28 12:07:33;;;;;;;5.10;4.70;;;3.20;1.00;;;;;;5012754;28;20180;-71
2023/11/28 12:10:09;;;;;;;5.37;5.07;;;3.30;1.00;;;;;;5012317;28;20188;-71
2023/11/28 12:12:35;;;;;;;5.47;5.10;;;3.30;1.00;;;;;;5012824;28;20168;-70
2023/11/28 12:15:01;;;;;;;7.73;7.03;;;3.30;1.00;;;;;;5012539;28;20231;-70
2023/11/28 12:17:27;;;;;;;10.53;7.47;;;3.30;1.00;;;;;;5013217;28;20203;-70
2023/11/28 12:19:52;;;;;;;13.90;10.43;;;3.40;1.00;;;;;;5013730;28;20172;-70
2023/11/28 12:22:18;;;;;;;15.17;11.40;;;3.40;1.00;;;;;;5012950;28;20172;-70
2023/11/28 12:24:44;;;;;;;7.43;6.83;;;3.50;1.00;;;;;;5012716;28;20517;-71
2023/11/28 12:27:10;;;;;;;6.87;6.20;;;3.50;1.00;;;;;;5012688;28;20172;-71
2023/11/28 12:29:37;;;;;;;7.30;6.80;;;3.60;1.00;;;;;;5012111;28;20172;-70
2023/11/28 12:32:04;;;;;;;7.90;7.30;;;3.70;1.00;;;;;;5012493;28;20180;-70
2023/11/28 12:34:31;;;;;;;6.70;6.30;;;3.70;1.00;;;;;;5012123;28;20207;-71
2023/11/28 12:36:58;;;;;;;19.10;17.23;;;3.60;1.00;;;;;;5012268;28;20192;-70
2023/11/28 12:39:25;;;;;;;17.50;15.90;;;3.60;1.00;;;;;;5010997;28;20207;-71